Terminal Aerodrome Forecast
Issued by NWS

Home | Current Version | Previous Version | Text Only | Print | Product List | Glossary Off
Versions: 1 2 3 4 5 6 7 8 9 10 11 12 13 14 15 16 17 18 19 20 21 22 23

000
FTUS43 KBIS 022341 AAA
TAFMOT
TAF AMD
KMOT 022341Z 0300/0324 18005KT P6SM OVC015
     FM030400 18006KT P6SM BKN040
     FM031600 18010KT P6SM BKN150
     FM032100 19010KT P6SM OVC020
     FM032200 19010KT P6SM OVC010=

USA.gov is the U.S. government's official web portal to all federal, state and local government web resources and services.